Time;durP1;ratioP1;P1;durP2;ratioP2;P2;SDS_P1;SDS_P2;PMS_P1;PMS_P2;Temp;Humidity;BMP_temperature;BMP_pressure;BME280_temperature;BME280_humidity;BME280_pressure;Samples;Min_cycle;Max_cycle;Signal;HPM_P1;HPM_P2
2022/08/21 00:02:17;;;;;;;0.10;0.10;;;;;;;;;;4896107;29;20056;-87
2022/08/21 00:04:43;;;;;;;0.10;0.10;;;;;;;;;;4896309;29;20040;-87
2022/08/21 00:07:09;;;;;;;0.10;0.10;;;;;;;;;;4911854;29;20460;-87
2022/08/21 00:09:34;;;;;;;0.10;0.10;;;;;;;;;;4880684;29;20116;-87
2022/08/21 00:12:00;;;;;;;0.10;0.10;;;;;;;;;;4880590;29;20063;-87
2022/08/21 00:14:26;;;;;;;0.10;0.10;;;;;;;;;;4880754;29;20099;-87
2022/08/21 00:16:52;;;;;;;0.10;0.10;;;;;;;;;;4880311;29;20048;-86
2022/08/21 00:19:18;;;;;;;0.10;0.10;;;;;;;;;;4880461;29;20071;-87
2022/08/21 00:21:44;;;;;;;0.10;0.10;;;;;;;;;;4880647;29;20056;-86
2022/08/21 00:24:10;;;;;;;0.10;0.10;;;;;;;;;;4880601;29;20132;-86
2022/08/21 00:26:36;;;;;;;0.10;0.10;;;;;;;;;;4880481;29;20496;-86
2022/08/21 00:29:02;;;;;;;0.10;0.10;;;;;;;;;;4897115;29;20116;-86
2022/08/21 00:31:28;;;;;;;0.10;0.10;;;;;;;;;;4897008;29;20044;-87
2022/08/21 00:33:54;;;;;;;0.10;0.10;;;;;;;;;;4880259;29;20041;-86
2022/08/21 00:36:20;;;;;;;0.20;0.20;;;;;;;;;;4880202;29;20065;-86
2022/08/21 00:38:46;;;;;;;0.10;0.10;;;;;;;;;;4880231;29;20508;-86
2022/08/21 00:41:12;;;;;;;0.10;0.10;;;;;;;;;;4880230;29;20513;-88
2022/08/21 00:43:38;;;;;;;0.10;0.10;;;;;;;;;;4880334;29;20389;-89
2022/08/21 00:46:05;;;;;;;0.10;0.10;;;;;;;;;;4879931;29;20432;-87
2022/08/21 00:48:31;;;;;;;0.10;0.10;;;;;;;;;;4895617;29;20043;-88
2022/08/21 00:51:08;;;;;;;0.10;0.10;;;;;;;;;;4895757;29;20476;-88
2022/08/21 00:53:35;;;;;;;0.10;0.10;;;;;;;;;;4880242;29;20044;-87
2022/08/21 00:56:03;;;;;;;0.10;0.10;;;;;;;;;;4879997;29;20096;-87
2022/08/21 00:58:30;;;;;;;0.10;0.10;;;;;;;;;;4895442;29;20036;-87
2022/08/21 01:00:56;;;;;;;0.10;0.10;;;;;;;;;;4895875;29;20049;-87
2022/08/21 01:03:22;;;;;;;0.10;0.10;;;;;;;;;;4879977;29;20052;-88
2022/08/21 01:05:48;;;;;;;0.10;0.10;;;;;;;;;;4879899;29;20152;-88
2022/08/21 01:08:15;;;;;;;0.10;0.10;;;;;;;;;;4880058;29;20405;-88
2022/08/21 01:10:41;;;;;;;0.10;0.10;;;;;;;;;;4880161;29;20049;-89
2022/08/21 01:13:08;;;;;;;0.10;0.10;;;;;;;;;;4883036;29;20060;-90
2022/08/21 01:15:35;;;;;;;0.10;0.10;;;;;;;;;;4883448;29;20041;-89
2022/08/21 01:18:02;;;;;;;0.10;0.10;;;;;;;;;;4899070;29;20049;-88
2022/08/21 01:20:28;;;;;;;0.10;0.10;;;;;;;;;;4883509;29;20052;-88
2022/08/21 01:22:54;;;;;;;0.10;0.10;;;;;;;;;;4883346;29;20044;-89
2022/08/21 01:25:20;;;;;;;0.10;0.10;;;;;;;;;;4883537;29;20140;-89
2022/08/21 01:27:46;;;;;;;0.10;0.10;;;;;;;;;;4898742;29;20569;-90
2022/08/21 01:30:13;;;;;;;0.10;0.10;;;;;;;;;;4883539;29;20124;-89
2022/08/21 01:32:39;;;;;;;0.10;0.10;;;;;;;;;;4899005;29;20048;-89
2022/08/21 01:35:05;;;;;;;0.10;0.10;;;;;;;;;;4883037;29;20087;-89
2022/08/21 01:37:31;;;;;;;0.10;0.10;;;;;;;;;;4883242;29;20092;-88
2022/08/21 01:39:57;;;;;;;0.10;0.10;;;;;;;;;;4899042;29;20438;-88
2022/08/21 01:42:23;;;;;;;0.10;0.10;;;;;;;;;;4883051;29;20100;-90
2022/08/21 01:44:49;;;;;;;0.10;0.10;;;;;;;;;;4883063;29;20096;-89
2022/08/21 01:47:15;;;;;;;0.10;0.10;;;;;;;;;;4883242;29;20515;-90
2022/08/21 01:49:41;;;;;;;0.10;0.10;;;;;;;;;;4883083;29;20048;-89
2022/08/21 01:52:07;;;;;;;0.15;0.15;;;;;;;;;;4898502;29;20123;-89
2022/08/21 01:54:33;;;;;;;0.10;0.10;;;;;;;;;;4882704;29;20478;-90
2022/08/21 01:56:59;;;;;;;0.10;0.10;;;;;;;;;;4882859;29;20045;-90
2022/08/21 01:59:25;;;;;;;0.10;0.10;;;;;;;;;;4882851;29;20044;-89
2022/08/21 02:01:53;;;;;;;0.10;0.10;;;;;;;;;;4883012;29;20185;-89
2022/08/21 02:04:19;;;;;;;0.10;0.10;;;;;;;;;;4898151;29;20051;-89
2022/08/21 02:06:45;;;;;;;0.10;0.10;;;;;;;;;;4882608;29;20053;-89
2022/08/21 02:09:11;;;;;;;0.10;0.10;;;;;;;;;;4883002;29;20056;-90
2022/08/21 02:11:41;;;;;;;0.10;0.10;;;;;;;;;;4882555;29;20040;-89
2022/08/21 02:14:08;;;;;;;0.10;0.10;;;;;;;;;;4897575;29;20056;-88
2022/08/21 02:16:34;;;;;;;0.10;0.10;;;;;;;;;;4882513;29;20055;-88
2022/08/21 02:19:00;;;;;;;0.10;0.10;;;;;;;;;;4898317;29;20048;-88
2022/08/21 02:21:26;;;;;;;0.10;0.10;;;;;;;;;;4899225;29;20508;-88
2022/08/21 02:23:52;;;;;;;0.10;0.10;;;;;;;;;;4897421;29;20135;-88
2022/08/21 02:26:18;;;;;;;0.10;0.10;;;;;;;;;;4897818;29;20044;-88
2022/08/21 02:28:44;;;;;;;0.10;0.10;;;;;;;;;;4882465;29;20128;-88
2022/08/21 02:31:10;;;;;;;0.10;0.10;;;;;;;;;;4882337;29;20077;-87
2022/08/21 02:33:36;;;;;;;0.10;0.10;;;;;;;;;;4882231;29;20052;-87
2022/08/21 02:36:02;;;;;;;0.10;0.10;;;;;;;;;;4881881;29;20057;-87
2022/08/21 02:38:29;;;;;;;0.10;0.10;;;;;;;;;;4881954;29;20047;-87
2022/08/21 02:40:55;;;;;;;0.10;0.10;;;;;;;;;;4882033;29;20047;-88
2022/08/21 02:43:22;;;;;;;0.10;0.10;;;;;;;;;;4897775;29;20124;-87
2022/08/21 02:45:48;;;;;;;0.10;0.10;;;;;;;;;;4882049;29;20507;-87
2022/08/21 02:48:15;;;;;;;0.10;0.10;;;;;;;;;;4882010;29;20048;-88
2022/08/21 02:50:41;;;;;;;0.10;0.10;;;;;;;;;;4897411;29;20076;-87
2022/08/21 02:53:08;;;;;;;0.10;0.10;;;;;;;;;;4881654;29;20575;-88
2022/08/21 02:55:34;;;;;;;0.10;0.10;;;;;;;;;;4881953;29;20109;-89
2022/08/21 02:58:01;;;;;;;0.10;0.10;;;;;;;;;;4881766;29;20056;-89
2022/08/21 03:00:27;;;;;;;0.10;0.10;;;;;;;;;;4881868;29;20049;-89
2022/08/21 03:02:55;;;;;;;0.10;0.10;;;;;;;;;;4881938;29;20456;-89
2022/08/21 03:05:21;;;;;;;0.10;0.10;;;;;;;;;;4897226;29;20044;-89
2022/08/21 03:07:47;;;;;;;0.10;0.10;;;;;;;;;;4881843;29;20530;-89
2022/08/21 03:10:13;;;;;;;0.10;0.10;;;;;;;;;;4897235;29;20156;-89
2022/08/21 03:12:39;;;;;;;0.10;0.10;;;;;;;;;;4881498;29;20091;-89
2022/08/21 03:15:06;;;;;;;0.10;0.10;;;;;;;;;;4881390;29;20238;-89
2022/08/21 03:17:32;;;;;;;0.10;0.10;;;;;;;;;;4881427;29;20620;-89
2022/08/21 03:19:58;;;;;;;0.10;0.10;;;;;;;;;;4881549;29;20044;-88
2022/08/21 03:22:24;;;;;;;0.10;0.10;;;;;;;;;;4881275;29;20136;-88
2022/08/21 03:24:51;;;;;;;0.10;0.10;;;;;;;;;;4881183;29;20164;-88
2022/08/21 03:27:17;;;;;;;0.10;0.10;;;;;;;;;;4881221;29;20053;-88
2022/08/21 03:29:43;;;;;;;0.10;0.10;;;;;;;;;;4881146;29;20106;-88
2022/08/21 03:32:09;;;;;;;0.10;0.10;;;;;;;;;;4881276;29;20460;-88
2022/08/21 03:34:35;;;;;;;0.10;0.10;;;;;;;;;;4880212;29;20055;-88
2022/08/21 03:37:02;;;;;;;0.10;0.10;;;;;;;;;;4881050;29;20059;-88
2022/08/21 03:39:28;;;;;;;0.10;0.10;;;;;;;;;;4912255;29;20040;-88
2022/08/21 03:41:54;;;;;;;0.10;0.10;;;;;;;;;;4896558;29;20507;-88
2022/08/21 03:44:20;;;;;;;0.10;0.10;;;;;;;;;;4897838;29;20083;-88
2022/08/21 03:46:46;;;;;;;0.10;0.10;;;;;;;;;;4881041;29;20080;-88
2022/08/21 03:49:12;;;;;;;0.10;0.10;;;;;;;;;;4896483;29;20047;-88
2022/08/21 03:51:38;;;;;;;0.10;0.10;;;;;;;;;;4880866;29;20044;-87
2022/08/21 03:54:04;;;;;;;0.20;0.20;;;;;;;;;;4880739;29;20040;-88
2022/08/21 03:56:30;;;;;;;0.10;0.10;;;;;;;;;;4896290;29;20045;-88
2022/08/21 03:58:56;;;;;;;0.10;0.10;;;;;;;;;;4880633;29;20044;-88
2022/08/21 04:01:22;;;;;;;0.10;0.10;;;;;;;;;;4880579;29;20055;-89
2022/08/21 04:03:48;;;;;;;0.10;0.10;;;;;;;;;;4880551;29;20048;-88
2022/08/21 04:06:14;;;;;;;0.15;0.15;;;;;;;;;;4880492;29;20055;-88
2022/08/21 04:08:42;;;;;;;0.10;0.10;;;;;;;;;;4880743;29;20045;-88
2022/08/21 04:11:10;;;;;;;0.10;0.10;;;;;;;;;;4896153;29;20047;-88
2022/08/21 04:13:36;;;;;;;0.10;0.10;;;;;;;;;;4895958;29;20047;-88
2022/08/21 04:16:02;;;;;;;0.10;0.10;;;;;;;;;;4880396;29;20041;-88
2022/08/21 04:18:28;;;;;;;0.10;0.10;;;;;;;;;;4895837;29;20089;-88
2022/08/21 04:20:54;;;;;;;0.10;0.10;;;;;;;;;;4880788;29;20044;-88
2022/08/21 04:23:20;;;;;;;0.10;0.10;;;;;;;;;;4880490;29;20036;-88
2022/08/21 04:25:46;;;;;;;0.10;0.10;;;;;;;;;;4880323;29;20048;-88
2022/08/21 04:28:12;;;;;;;0.10;0.10;;;;;;;;;;4880297;29;20045;-88
2022/08/21 04:30:38;;;;;;;0.10;0.10;;;;;;;;;;4880618;29;20127;-88
2022/08/21 04:33:04;;;;;;;0.10;0.10;;;;;;;;;;4895958;29;20047;-88
2022/08/21 04:35:30;;;;;;;0.10;0.10;;;;;;;;;;4880092;29;20053;-88
2022/08/21 04:37:56;;;;;;;0.10;0.10;;;;;;;;;;4880403;29;20377;-90
2022/08/21 04:40:23;;;;;;;0.20;0.20;;;;;;;;;;4896137;29;20060;-90
2022/08/21 04:42:50;;;;;;;0.10;0.10;;;;;;;;;;4880528;29;20544;-90
2022/08/21 04:45:17;;;;;;;0.10;0.10;;;;;;;;;;4880473;29;20047;-89
2022/08/21 04:47:43;;;;;;;0.10;0.10;;;;;;;;;;4899525;29;20056;-89
2022/08/21 04:50:09;;;;;;;0.10;0.10;;;;;;;;;;4899619;29;20161;-89
2022/08/21 04:52:35;;;;;;;0.10;0.10;;;;;;;;;;4883955;29;20097;-89
2022/08/21 04:55:01;;;;;;;0.10;0.10;;;;;;;;;;4883969;29;20040;-89
2022/08/21 04:57:27;;;;;;;0.10;0.10;;;;;;;;;;4899573;29;20052;-88
2022/08/21 04:59:53;;;;;;;0.10;0.10;;;;;;;;;;4884050;29;20502;-88
2022/08/21 05:02:20;;;;;;;0.10;0.10;;;;;;;;;;4883755;29;20048;-88
2022/08/21 05:04:47;;;;;;;0.10;0.10;;;;;;;;;;4884123;29;20049;-88
2022/08/21 05:07:16;;;;;;;0.10;0.10;;;;;;;;;;4883667;29;20083;-87
2022/08/21 05:09:42;;;;;;;0.10;0.10;;;;;;;;;;4883719;29;20040;-88
2022/08/21 05:12:08;;;;;;;0.10;0.10;;;;;;;;;;4883828;29;20100;-87
2022/08/21 05:14:34;;;;;;;0.10;0.10;;;;;;;;;;4899083;29;20051;-88
2022/08/21 05:17:00;;;;;;;0.10;0.10;;;;;;;;;;4899335;29;20045;-89
2022/08/21 05:19:26;;;;;;;0.10;0.10;;;;;;;;;;4883868;29;20096;-89
2022/08/21 05:21:52;;;;;;;0.10;0.10;;;;;;;;;;4883792;29;20044;-88
2022/08/21 05:24:18;;;;;;;0.10;0.10;;;;;;;;;;4883524;29;20149;-89
2022/08/21 05:26:44;;;;;;;0.10;0.10;;;;;;;;;;4883555;29;20122;-89
2022/08/21 05:29:10;;;;;;;0.10;0.10;;;;;;;;;;4883579;29;20081;-88
2022/08/21 05:31:36;;;;;;;0.10;0.10;;;;;;;;;;4883573;29;20040;-88
2022/08/21 05:34:02;;;;;;;0.20;0.20;;;;;;;;;;4898897;29;20041;-88
2022/08/21 05:36:28;;;;;;;0.10;0.10;;;;;;;;;;4898988;29;20056;-89
2022/08/21 05:38:54;;;;;;;0.10;0.10;;;;;;;;;;4903605;29;20067;-88
2022/08/21 05:41:20;;;;;;;0.10;0.10;;;;;;;;;;4904483;29;20055;-88
2022/08/21 05:43:46;;;;;;;0.10;0.10;;;;;;;;;;4888707;29;20051;-88
2022/08/21 05:46:12;;;;;;;0.10;0.10;;;;;;;;;;4888745;29;20127;-89
2022/08/21 05:48:38;;;;;;;0.10;0.10;;;;;;;;;;4888901;29;20381;-88
2022/08/21 05:51:05;;;;;;;0.10;0.10;;;;;;;;;;4888137;29;20041;-89
2022/08/21 05:53:31;;;;;;;0.10;0.10;;;;;;;;;;4883751;29;20051;-88
2022/08/21 05:55:57;;;;;;;0.10;0.10;;;;;;;;;;4906770;29;20036;-89
2022/08/21 05:58:23;;;;;;;0.10;0.10;;;;;;;;;;4903957;29;20049;-88
2022/08/21 06:00:50;;;;;;;0.10;0.10;;;;;;;;;;4882736;29;20049;-88
2022/08/21 06:03:22;;;;;;;0.10;0.10;;;;;;;;;;4882680;29;20060;-88
2022/08/21 06:05:48;;;;;;;0.10;0.10;;;;;;;;;;4882690;29;20226;-89
2022/08/21 06:08:15;;;;;;;0.10;0.10;;;;;;;;;;4882749;29;20049;-89
2022/08/21 06:10:41;;;;;;;0.10;0.10;;;;;;;;;;4882659;29;20132;-88
2022/08/21 06:13:07;;;;;;;0.10;0.10;;;;;;;;;;4882523;29;20119;-88
2022/08/21 06:15:34;;;;;;;0.10;0.10;;;;;;;;;;4882515;29;20472;-88
2022/08/21 06:18:00;;;;;;;0.10;0.10;;;;;;;;;;4913940;29;20049;-88
2022/08/21 06:20:25;;;;;;;0.10;0.10;;;;;;;;;;4882822;29;20102;-88
2022/08/21 06:22:51;;;;;;;0.10;0.10;;;;;;;;;;4882674;29;20048;-88
2022/08/21 06:25:18;;;;;;;0.10;0.10;;;;;;;;;;4897905;29;20048;-88
2022/08/21 06:27:44;;;;;;;0.10;0.10;;;;;;;;;;4898905;29;20048;-89
2022/08/21 06:30:10;;;;;;;0.10;0.10;;;;;;;;;;4898199;29;20417;-88
2022/08/21 06:32:36;;;;;;;0.10;0.10;;;;;;;;;;4882243;29;20045;-88
2022/08/21 06:35:02;;;;;;;0.22;0.22;;;;;;;;;;4897468;29;20053;-88
2022/08/21 06:37:28;;;;;;;0.10;0.10;;;;;;;;;;4882441;29;20056;-88
2022/08/21 06:39:54;;;;;;;0.10;0.10;;;;;;;;;;4882360;29;20048;-86
2022/08/21 06:42:20;;;;;;;0.10;0.10;;;;;;;;;;4882074;29;20578;-88
2022/08/21 06:44:47;;;;;;;0.10;0.10;;;;;;;;;;4897985;29;20203;-89
2022/08/21 06:47:13;;;;;;;0.10;0.10;;;;;;;;;;4882012;29;20084;-89
2022/08/21 06:49:39;;;;;;;0.10;0.10;;;;;;;;;;4881879;29;20080;-88
2022/08/21 06:52:08;;;;;;;0.10;0.10;;;;;;;;;;4881872;29;20056;-89
2022/08/21 06:54:34;;;;;;;0.10;0.10;;;;;;;;;;4913049;29;20363;-87
2022/08/21 06:57:00;;;;;;;0.20;0.20;;;;;;;;;;4881918;29;20128;-87
2022/08/21 06:59:26;;;;;;;0.10;0.10;;;;;;;;;;4881761;29;20048;-88
2022/08/21 07:01:52;;;;;;;0.10;0.10;;;;;;;;;;4891550;29;20048;-89
2022/08/21 07:04:19;;;;;;;0.20;0.20;;;;;;;;;;4884625;29;20048;-90
2022/08/21 07:06:45;;;;;;;0.13;0.13;;;;;;;;;;4890362;29;20052;-92
2022/08/21 07:09:11;;;;;;;0.20;0.20;;;;;;;;;;4898961;29;20095;-91
2022/08/21 07:11:37;;;;;;;0.10;0.10;;;;;;;;;;4916052;29;20044;-89
2022/08/21 07:14:03;;;;;;;0.20;0.20;;;;;;;;;;4915849;29;20432;-91
2022/08/21 07:16:29;;;;;;;0.20;0.20;;;;;;;;;;4915855;29;20040;-88
2022/08/21 07:18:55;;;;;;;0.13;0.13;;;;;;;;;;4899867;29;20052;-89
2022/08/21 07:21:21;;;;;;;0.20;0.20;;;;;;;;;;4899937;29;20044;-89
2022/08/21 07:23:48;;;;;;;0.13;0.13;;;;;;;;;;4899562;29;20055;-89
2022/08/21 07:26:15;;;;;;;0.20;0.20;;;;;;;;;;4915746;29;20399;-89
2022/08/21 07:28:41;;;;;;;0.20;0.20;;;;;;;;;;4931370;29;20480;-91
2022/08/21 07:31:07;;;;;;;0.20;0.20;;;;;;;;;;4899762;29;20051;-91
2022/08/21 07:33:33;;;;;;;0.20;0.20;;;;;;;;;;4915834;29;20063;-92
2022/08/21 07:35:59;;;;;;;0.10;0.10;;;;;;;;;;4899656;29;20059;-89
2022/08/21 07:38:25;;;;;;;0.20;0.20;;;;;;;;;;4915159;29;20052;-88
2022/08/21 07:40:51;;;;;;;0.20;0.20;;;;;;;;;;4915613;29;20131;-88
2022/08/21 07:43:18;;;;;;;0.20;0.20;;;;;;;;;;4915290;29;20107;-89
2022/08/21 07:45:44;;;;;;;0.20;0.20;;;;;;;;;;4931006;29;20339;-92
2022/08/21 07:48:10;;;;;;;0.17;0.17;;;;;;;;;;4930961;29;20079;-90
2022/08/21 07:50:36;;;;;;;0.20;0.20;;;;;;;;;;4899307;29;20082;-90
2022/08/21 07:53:02;;;;;;;0.20;0.20;;;;;;;;;;4915239;29;20048;-88
2022/08/21 07:55:28;;;;;;;0.20;0.20;;;;;;;;;;4915264;29;20048;-90
2022/08/21 07:57:54;;;;;;;0.20;0.20;;;;;;;;;;4915158;29;20139;-89
2022/08/21 08:00:21;;;;;;;0.30;0.30;;;;;;;;;;4931234;29;20127;-90
2022/08/21 08:02:51;;;;;;;0.20;0.20;;;;;;;;;;4898918;29;20054;-89
2022/08/21 08:05:18;;;;;;;0.20;0.20;;;;;;;;;;4884592;29;20087;-88
2022/08/21 08:07:44;;;;;;;0.20;0.20;;;;;;;;;;4880277;29;20488;-88
2022/08/21 08:10:11;;;;;;;0.20;0.20;;;;;;;;;;4880969;29;20136;-88
2022/08/21 08:12:37;;;;;;;0.20;0.20;;;;;;;;;;4880436;29;20051;-91
2022/08/21 08:15:04;;;;;;;0.20;0.20;;;;;;;;;;4880336;29;20044;-91
2022/08/21 08:17:31;;;;;;;0.20;0.20;;;;;;;;;;4880547;29;20041;-91
2022/08/21 08:19:57;;;;;;;0.20;0.20;;;;;;;;;;4880340;29;20140;-91
2022/08/21 08:22:23;;;;;;;0.20;0.20;;;;;;;;;;4881920;29;20044;-90
2022/08/21 08:24:50;;;;;;;0.20;0.20;;;;;;;;;;4895884;29;20044;-91
2022/08/21 08:27:16;;;;;;;0.20;0.20;;;;;;;;;;4880202;29;20187;-91
2022/08/21 08:29:42;;;;;;;0.20;0.20;;;;;;;;;;4880384;29;20041;-90
2022/08/21 08:32:08;;;;;;;0.20;0.20;;;;;;;;;;4880270;29;20514;-91
2022/08/21 08:34:35;;;;;;;0.20;0.20;;;;;;;;;;4879908;29;20109;-91
2022/08/21 08:37:01;;;;;;;0.20;0.20;;;;;;;;;;4880733;29;20377;-92
2022/08/21 08:39:27;;;;;;;0.20;0.20;;;;;;;;;;4880229;29;20045;-93
2022/08/21 08:42:13;;;;;;;0.20;0.20;;;;;;;;;;4880308;29;20047;-91
2022/08/21 08:44:40;;;;;;;0.20;0.20;;;;;;;;;;4895578;29;20123;-91
2022/08/21 08:47:06;;;;;;;0.20;0.20;;;;;;;;;;4879950;29;20047;-90
2022/08/21 08:49:40;;;;;;;0.20;0.20;;;;;;;;;;4880296;29;20465;-88
2022/08/21 08:52:08;;;;;;;0.20;0.20;;;;;;;;;;4895869;29;20049;-89
2022/08/21 08:54:35;;;;;;;0.20;0.20;;;;;;;;;;4880131;29;20041;-89
2022/08/21 08:57:02;;;;;;;0.20;0.20;;;;;;;;;;4880322;29;20044;-89
2022/08/21 08:59:30;;;;;;;0.20;0.20;;;;;;;;;;4880212;29;20049;-89
2022/08/21 09:01:56;;;;;;;0.20;0.20;;;;;;;;;;4895469;29;20104;-90
2022/08/21 09:04:25;;;;;;;0.20;0.20;;;;;;;;;;4879803;29;20045;-90
2022/08/21 09:06:54;;;;;;;0.20;0.20;;;;;;;;;;4879865;29;20071;-89
2022/08/21 09:09:39;;;;;;;0.20;0.20;;;;;;;;;;4880032;29;20045;-89
2022/08/21 09:12:23;;;;;;;0.20;0.20;;;;;;;;;;4895391;29;20101;-89
2022/08/21 09:15:02;;;;;;;0.20;0.20;;;;;;;;;;4895416;29;20076;-90
2022/08/21 09:17:37;;;;;;;0.20;0.20;;;;;;;;;;4911465;29;20469;-88
2022/08/21 09:20:13;;;;;;;0.20;0.20;;;;;;;;;;4880014;29;20131;-89
2022/08/21 09:22:58;;;;;;;0.20;0.20;;;;;;;;;;4879666;29;20460;-88
2022/08/21 09:25:25;;;;;;;0.20;0.20;;;;;;;;;;4880035;29;20389;-88
2022/08/21 09:27:51;;;;;;;0.20;0.20;;;;;;;;;;4880149;29;20044;-89
2022/08/21 09:30:17;;;;;;;0.20;0.20;;;;;;;;;;4879833;29;20511;-87
2022/08/21 09:32:43;;;;;;;0.20;0.20;;;;;;;;;;4896408;29;20124;-87
2022/08/21 09:35:13;;;;;;;0.20;0.20;;;;;;;;;;4882822;29;20084;-88
2022/08/21 09:37:51;;;;;;;0.20;0.20;;;;;;;;;;4883099;29;20052;-88
2022/08/21 09:40:30;;;;;;;0.20;0.20;;;;;;;;;;4882995;29;20567;-88
2022/08/21 09:43:19;;;;;;;0.20;0.20;;;;;;;;;;4898607;29;20149;-91
2022/08/21 09:45:45;;;;;;;0.20;0.20;;;;;;;;;;4870179;29;20392;-88
2022/08/21 09:48:21;;;;;;;0.20;0.20;;;;;;;;;;4899819;29;20063;-90
2022/08/21 09:50:47;;;;;;;0.20;0.20;;;;;;;;;;4882901;29;20041;-90
2022/08/21 09:53:31;;;;;;;0.20;0.20;;;;;;;;;;4882666;29;20097;-89
2022/08/21 09:58:44;;;;;;;0.20;0.20;;;;;;;;;;4895979;29;20052;-87
2022/08/21 10:01:14;;;;;;;0.20;0.20;;;;;;;;;;4898426;29;20045;-85
2022/08/21 10:03:40;;;;;;;0.20;0.20;;;;;;;;;;4882737;29;20048;-83
2022/08/21 10:06:09;;;;;;;0.20;0.20;;;;;;;;;;4882779;29;20052;-83
2022/08/21 10:08:35;;;;;;;0.20;0.20;;;;;;;;;;4897896;29;20454;-85
2022/08/21 10:11:07;;;;;;;0.20;0.20;;;;;;;;;;4883016;29;20123;-85
2022/08/21 10:13:39;;;;;;;0.20;0.20;;;;;;;;;;4885581;29;20041;-85
2022/08/21 10:16:14;;;;;;;0.30;0.30;;;;;;;;;;4898269;29;20059;-85
2022/08/21 10:18:42;;;;;;;0.20;0.20;;;;;;;;;;4882963;29;20041;-85
2022/08/21 10:21:15;;;;;;;0.20;0.20;;;;;;;;;;4883036;29;20041;-84
2022/08/21 10:24:00;;;;;;;0.20;0.20;;;;;;;;;;4913712;29;20489;-85
2022/08/21 10:26:29;;;;;;;0.20;0.20;;;;;;;;;;4913916;29;20044;-85
2022/08/21 10:29:09;;;;;;;0.20;0.20;;;;;;;;;;4913795;29;20045;-84
2022/08/21 10:31:39;;;;;;;0.30;0.30;;;;;;;;;;4882096;29;20053;-85
2022/08/21 10:34:15;;;;;;;0.20;0.20;;;;;;;;;;4897699;29;20131;-84
2022/08/21 10:37:02;;;;;;;0.20;0.20;;;;;;;;;;4897451;29;20516;-85
2022/08/21 10:39:35;;;;;;;0.20;0.20;;;;;;;;;;4913375;29;20120;-84
2022/08/21 10:42:28;;;;;;;0.20;0.20;;;;;;;;;;4882138;29;20127;-84
2022/08/21 10:45:01;;;;;;;0.20;0.20;;;;;;;;;;4867856;29;20064;-84
2022/08/21 10:47:41;;;;;;;0.30;0.30;;;;;;;;;;4898644;29;20088;-84
2022/08/21 10:50:11;;;;;;;0.20;0.20;;;;;;;;;;4913116;29;20391;-84
2022/08/21 10:52:43;;;;;;;0.20;0.20;;;;;;;;;;4913221;29;20488;-85
2022/08/21 10:55:23;;;;;;;0.20;0.20;;;;;;;;;;4881685;29;20044;-84
2022/08/21 10:57:49;;;;;;;0.20;0.20;;;;;;;;;;4882021;29;20386;-87
2022/08/21 11:00:16;;;;;;;0.20;0.20;;;;;;;;;;4881738;29;20044;-87
2022/08/21 11:02:48;;;;;;;0.20;0.20;;;;;;;;;;4897214;29;20128;-86
2022/08/21 11:05:17;;;;;;;0.20;0.20;;;;;;;;;;4881189;29;20059;-85
2022/08/21 11:07:48;;;;;;;0.30;0.30;;;;;;;;;;4881465;29;20100;-85
2022/08/21 11:10:21;;;;;;;0.20;0.20;;;;;;;;;;4896971;29;20041;-84
2022/08/21 11:12:48;;;;;;;0.20;0.20;;;;;;;;;;4896856;29;20041;-85
2022/08/21 11:15:34;;;;;;;0.20;0.20;;;;;;;;;;4896615;29;20041;-85
2022/08/21 11:18:18;;;;;;;0.20;0.20;;;;;;;;;;4913112;29;20041;-85
2022/08/21 11:20:50;;;;;;;0.17;0.17;;;;;;;;;;4898356;29;20044;-85
2022/08/21 11:23:16;;;;;;;;;;;;;;;;;;4881714;29;20048;-89
2022/08/21 11:25:43;;;;;;;0.20;0.20;;;;;;;;;;4896617;29;19919;-88
2022/08/21 11:28:11;;;;;;;0.20;0.20;;;;;;;;;;4896489;29;20131;-87
2022/08/21 11:30:40;;;;;;;0.20;0.20;;;;;;;;;;4896687;29;20040;-89
2022/08/21 11:33:09;;;;;;;0.20;0.20;;;;;;;;;;4896706;29;20369;-87
2022/08/21 11:35:52;;;;;;;0.20;0.20;;;;;;;;;;4881219;29;20064;-88
2022/08/21 11:38:24;;;;;;;0.20;0.20;;;;;;;;;;4880996;29;20048;-85
2022/08/21 11:41:23;;;;;;;0.20;0.20;;;;;;;;;;4896651;29;20461;-86
2022/08/21 11:43:50;;;;;;;0.17;0.17;;;;;;;;;;4876278;29;20384;-86
2022/08/21 11:46:16;;;;;;;0.20;0.20;;;;;;;;;;4911790;29;20396;-85
2022/08/21 11:49:00;;;;;;;0.20;0.20;;;;;;;;;;4891976;29;20051;-86
2022/08/21 11:51:28;;;;;;;0.20;0.20;;;;;;;;;;4915085;29;20582;-86
2022/08/21 11:54:06;;;;;;;0.20;0.20;;;;;;;;;;4930837;29;20044;-86
2022/08/21 11:56:38;;;;;;;0.20;0.20;;;;;;;;;;4930633;29;20051;-85
2022/08/21 11:59:05;;;;;;;0.20;0.20;;;;;;;;;;4931064;29;20092;-85
2022/08/21 12:01:33;;;;;;;0.20;0.20;;;;;;;;;;4916357;29;20044;-85
2022/08/21 12:04:07;;;;;;;0.20;0.20;;;;;;;;;;4914576;29;20048;-85
2022/08/21 12:06:38;;;;;;;0.10;0.10;;;;;;;;;;4931020;29;20109;-84
2022/08/21 12:09:05;;;;;;;0.10;0.10;;;;;;;;;;4915425;29;20088;-85
2022/08/21 12:11:31;;;;;;;0.10;0.10;;;;;;;;;;4915184;29;20468;-84
2022/08/21 12:13:58;;;;;;;0.10;0.10;;;;;;;;;;4916199;29;20168;-86
2022/08/21 12:16:31;;;;;;;0.10;0.10;;;;;;;;;;4914802;29;20032;-87
2022/08/21 12:19:23;;;;;;;0.10;0.10;;;;;;;;;;4914925;29;20044;-86
2022/08/21 12:21:54;;;;;;;0.17;0.17;;;;;;;;;;4898789;29;20052;-85
2022/08/21 12:24:28;;;;;;;0.17;0.17;;;;;;;;;;4930444;29;20127;-86
2022/08/21 12:26:59;;;;;;;0.10;0.10;;;;;;;;;;4930748;29;20044;-85
2022/08/21 12:29:29;;;;;;;0.10;0.10;;;;;;;;;;4930541;29;20071;-86
2022/08/21 12:31:56;;;;;;;0.20;0.20;;;;;;;;;;4930574;29;20040;-86
2022/08/21 12:34:28;;;;;;;0.13;0.13;;;;;;;;;;4898766;29;20055;-86
2022/08/21 12:36:57;;;;;;;0.10;0.10;;;;;;;;;;4914558;29;20055;-87
2022/08/21 12:39:24;;;;;;;0.20;0.20;;;;;;;;;;4930492;29;20072;-86
2022/08/21 12:41:52;;;;;;;0.20;0.20;;;;;;;;;;4914678;29;20083;-86
2022/08/21 12:44:21;;;;;;;0.13;0.13;;;;;;;;;;4907113;29;20045;-86
2022/08/21 12:46:48;;;;;;;0.20;0.20;;;;;;;;;;4879842;29;20133;-86
2022/08/21 12:49:16;;;;;;;0.20;0.20;;;;;;;;;;4880845;29;20510;-86
2022/08/21 12:51:51;;;;;;;0.10;0.10;;;;;;;;;;4899040;29;20369;-85
2022/08/21 12:54:24;;;;;;;0.10;0.10;;;;;;;;;;4930207;29;20096;-85
2022/08/21 12:56:56;;;;;;;0.10;0.10;;;;;;;;;;4914665;29;20048;-87
2022/08/21 12:59:22;;;;;;;0.20;0.20;;;;;;;;;;4914383;29;20190;-84
2022/08/21 13:01:49;;;;;;;0.20;0.20;;;;;;;;;;4930501;29;20153;-85
2022/08/21 13:04:20;;;;;;;0.10;0.10;;;;;;;;;;4898344;29;20048;-86
2022/08/21 13:06:46;;;;;;;0.10;0.10;;;;;;;;;;4930155;29;20048;-89
2022/08/21 13:09:13;;;;;;;0.10;0.10;;;;;;;;;;4901964;29;20292;-87
2022/08/21 13:11:42;;;;;;;0.10;0.10;;;;;;;;;;4933893;29;20037;-87
2022/08/21 13:14:31;;;;;;;0.10;0.10;;;;;;;;;;4917795;29;20050;-86
2022/08/21 13:16:58;;;;;;;0.10;0.10;;;;;;;;;;4933706;29;20051;-86
2022/08/21 13:19:25;;;;;;;0.10;0.10;;;;;;;;;;4933937;29;20338;-86
2022/08/21 13:21:52;;;;;;;0.20;0.20;;;;;;;;;;4917705;29;20128;-86
2022/08/21 13:24:24;;;;;;;0.10;0.10;;;;;;;;;;4933288;29;20044;-87
2022/08/21 13:26:50;;;;;;;0.20;0.20;;;;;;;;;;4901052;29;20049;-87
2022/08/21 13:29:20;;;;;;;0.10;0.10;;;;;;;;;;4883256;29;20056;-87
2022/08/21 13:31:49;;;;;;;0.20;0.20;;;;;;;;;;4883140;29;20087;-87
2022/08/21 13:34:16;;;;;;;0.30;0.30;;;;;;;;;;4882971;29;20040;-87
2022/08/21 13:36:42;;;;;;;0.20;0.20;;;;;;;;;;4882892;29;20393;-85
2022/08/21 13:39:09;;;;;;;0.20;0.20;;;;;;;;;;4882937;29;20100;-84
2022/08/21 13:41:36;;;;;;;0.20;0.20;;;;;;;;;;4882924;29;20082;-85
2022/08/21 13:44:26;;;;;;;0.10;0.10;;;;;;;;;;4898830;29;20139;-86
2022/08/21 13:46:52;;;;;;;0.10;0.10;;;;;;;;;;4882879;29;20048;-85
2022/08/21 13:49:19;;;;;;;0.20;0.20;;;;;;;;;;4882606;29;20040;-85
2022/08/21 13:51:46;;;;;;;0.17;0.17;;;;;;;;;;4882976;29;20434;-85
2022/08/21 13:54:16;;;;;;;0.10;0.10;;;;;;;;;;4882586;29;20040;-85
2022/08/21 13:56:43;;;;;;;0.10;0.10;;;;;;;;;;4882646;29;20045;-84
2022/08/21 13:59:09;;;;;;;0.10;0.10;;;;;;;;;;4882545;29;20617;-85
2022/08/21 14:01:39;;;;;;;0.10;0.10;;;;;;;;;;4882697;29;20060;-85
2022/08/21 14:04:26;;;;;;;0.10;0.10;;;;;;;;;;4882542;29;20087;-86
2022/08/21 14:06:52;;;;;;;0.20;0.20;;;;;;;;;;4882424;29;20122;-84
2022/08/21 14:09:47;;;;;;;0.10;0.10;;;;;;;;;;4898195;29;20096;-84
2022/08/21 14:12:27;;;;;;;0.15;0.15;;;;;;;;;;4878103;29;20123;-84
2022/08/21 14:14:53;;;;;;;0.10;0.10;;;;;;;;;;4882226;29;20037;-85
2022/08/21 14:17:41;;;;;;;0.10;0.10;;;;;;;;;;4882293;29;20101;-85
2022/08/21 14:20:07;;;;;;;0.20;0.20;;;;;;;;;;4898944;29;20088;-84
2022/08/21 14:22:37;;;;;;;0.20;0.20;;;;;;;;;;4882546;29;20055;-85
2022/08/21 14:25:15;;;;;;;0.20;0.20;;;;;;;;;;4897849;29;20049;-85
2022/08/21 14:27:52;;;;;;;0.10;0.10;;;;;;;;;;4897647;29;20044;-85
2022/08/21 14:30:21;;;;;;;0.20;0.20;;;;;;;;;;4897657;29;20052;-85
2022/08/21 14:32:47;;;;;;;0.20;0.20;;;;;;;;;;4882210;29;20036;-85
2022/08/21 14:35:13;;;;;;;0.10;0.10;;;;;;;;;;4882102;29;20134;-85
2022/08/21 14:37:42;;;;;;;0.20;0.20;;;;;;;;;;4882104;29;20393;-85
2022/08/21 14:40:10;;;;;;;0.10;0.10;;;;;;;;;;4882027;29;20052;-83
2022/08/21 14:42:36;;;;;;;0.10;0.10;;;;;;;;;;4882205;29;20052;-84
2022/08/21 14:45:13;;;;;;;0.20;0.20;;;;;;;;;;4898898;29;20049;-84
2022/08/21 14:47:39;;;;;;;0.10;0.10;;;;;;;;;;4897521;29;20064;-85
2022/08/21 14:50:05;;;;;;;0.10;0.10;;;;;;;;;;4882009;29;20047;-85
2022/08/21 14:52:32;;;;;;;0.10;0.10;;;;;;;;;;4881973;29;20502;-84
2022/08/21 14:54:58;;;;;;;0.20;0.20;;;;;;;;;;4882107;29;20450;-86